Atlantis — PCDT — position and weather

sailwx.info

Track history (hours):
 
Tides and Currents Weather Stations Pressure Air Temp Water Temp Dewpoint Dewpoint Depression Visibility Wind Speed Wind Dir Waves Ship Positions

Atlantis (Netherlands)

Ship's website: http://www.tallship-company.com/artemis/gb_atlantis.htm

Last reported at 2019-Oct-03 20:36 UTC. Time now 2019-Oct-17 16:25 UTC.
Position N 42°45' E 010°15'.
Warning: this ship's position is 13 days out of date.

Length 40 m; draft 4.5 m.

Type: Sailing vessel. MMSI: 246253000.

Date/timePositionNaut miles runAvg speedWind from/ knotsBaromVisibWave heightAir tempDewpointWater temp
2019-Oct-03 20:36N 42°45' E 010°15'0 0.0
2019-Oct-03 10:33N 42°45' E 010°15'0 0.0
2019-Oct-03 10:03N 42°45' E 010°15'4 0.2
2019-Oct-02 15:51N 42°41' E 010°19'6 3.4
2019-Oct-02 14:06N 42°43' E 010°27'3 0.7
2019-Oct-02 09:37N 42°46' E 010°25'1 0.0
2019-Oct-01 18:49N 42°46' E 010°24'0 0.1
2019-Oct-01 18:28N 42°46' E 010°24'0 0.0
2019-Oct-01 17:58N 42°46' E 010°24'0 0.0
2019-Oct-01 17:13N 42°46' E 010°24'0 0.1
2019-Oct-01 16:58N 42°46' E 010°24'1 0.2
2019-Oct-01 09:32N 42°45' E 010°25'  
2019-Sep-26 01:24N 42°45' E 010°15'0 0.0
2019-Sep-25 23:27N 42°45' E 010°15'0 0.0
2019-Sep-25 22:33N 42°45' E 010°15'0 0.0
2019-Sep-25 21:57N 42°45' E 010°15'0 0.0
2019-Sep-25 20:30N 42°45' E 010°15'5 1.0
2019-Sep-25 15:34N 42°43' E 010°21'4 5.3
2019-Sep-25 14:45N 42°43' E 010°27'3 5.1
2019-Sep-25 14:09N 42°46' E 010°24'0 1.7
2019-Sep-25 14:00N 42°46' E 010°24'0 0.0
2019-Sep-25 13:24N 42°46' E 010°24'0 0.0
2019-Sep-25 12:36N 42°46' E 010°24'0 0.0
2019-Sep-25 12:30N 42°46' E 010°24'0 0.0
2019-Sep-25 11:54N 42°46' E 010°24'0 0.0
2019-Sep-25 11:24N 42°46' E 010°24'0 0.0
2019-Sep-25 11:00N 42°46' E 010°24'0 0.0
2019-Sep-25 10:27N 42°46' E 010°24'0 0.1
2019-Sep-25 05:37N 42°46' E 010°25'0 3.6
2019-Sep-25 05:30N 42°46' E 010°24'0 0.0
2019-Sep-25 04:58N 42°46' E 010°24'0 0.0
2019-Sep-25 03:43N 42°46' E 010°24'0 0.0
2019-Sep-24 09:55N 42°45' E 010°25'2 3.3
2019-Sep-24 09:11N 42°45' E 010°28'  
Track history (hours):
 
Tides and Currents Weather Stations Pressure Air Temp Water Temp Dewpoint Dewpoint Depression Visibility Wind Speed Wind Dir Waves Ship Positions

Atlantis (Netherlands)

Ship's website: http://www.tallship-company.com/artemis/gb_atlantis.htm

Last reported at 2019-Oct-03 20:36 UTC. Time now 2019-Oct-17 16:25 UTC.
Position N 42°45' E 010°15'.
Warning: this ship's position is 13 days out of date.

Length 40 m; draft 4.5 m.

Type: Sailing vessel. MMSI: 246253000.

Date/timePositionNaut miles runAvg speedWind from/ knotsBaromVisibWave heightAir tempDewpointWater temp
2019-Oct-03 20:36N 42°45' E 010°15'0 0.0
2019-Oct-03 10:33N 42°45' E 010°15'0 0.0
2019-Oct-03 10:03N 42°45' E 010°15'4 0.2
2019-Oct-02 15:51N 42°41' E 010°19'6 3.4
2019-Oct-02 14:06N 42°43' E 010°27'3 0.7
2019-Oct-02 09:37N 42°46' E 010°25'1 0.0
2019-Oct-01 18:49N 42°46' E 010°24'0 0.1
2019-Oct-01 18:28N 42°46' E 010°24'0 0.0
2019-Oct-01 17:58N 42°46' E 010°24'0 0.0
2019-Oct-01 17:13N 42°46' E 010°24'0 0.1
2019-Oct-01 16:58N 42°46' E 010°24'1 0.2
2019-Oct-01 09:32N 42°45' E 010°25'  
2019-Sep-26 01:24N 42°45' E 010°15'0 0.0
2019-Sep-25 23:27N 42°45' E 010°15'0 0.0
2019-Sep-25 22:33N 42°45' E 010°15'0 0.0
2019-Sep-25 21:57N 42°45' E 010°15'0 0.0
2019-Sep-25 20:30N 42°45' E 010°15'5 1.0
2019-Sep-25 15:34N 42°43' E 010°21'4 5.3
2019-Sep-25 14:45N 42°43' E 010°27'3 5.1
2019-Sep-25 14:09N 42°46' E 010°24'0 1.7
2019-Sep-25 14:00N 42°46' E 010°24'0 0.0
2019-Sep-25 13:24N 42°46' E 010°24'0 0.0
2019-Sep-25 12:36N 42°46' E 010°24'0 0.0
2019-Sep-25 12:30N 42°46' E 010°24'0 0.0
2019-Sep-25 11:54N 42°46' E 010°24'0 0.0
2019-Sep-25 11:24N 42°46' E 010°24'0 0.0
2019-Sep-25 11:00N 42°46' E 010°24'0 0.0
2019-Sep-25 10:27N 42°46' E 010°24'0 0.1
2019-Sep-25 05:37N 42°46' E 010°25'0 3.6
2019-Sep-25 05:30N 42°46' E 010°24'0 0.0
2019-Sep-25 04:58N 42°46' E 010°24'0 0.0
2019-Sep-25 03:43N 42°46' E 010°24'0 0.0
2019-Sep-24 09:55N 42°45' E 010°25'2 3.3
2019-Sep-24 09:11N 42°45' E 010°28'  

Dump ship's entire track history